Time;durP1;ratioP1;P1;durP2;ratioP2;P2;SDS_P1;SDS_P2;PMS_P1;PMS_P2;Temp;Humidity;BMP_temperature;BMP_pressure;BME280_temperature;BME280_humidity;BME280_pressure;Samples;Min_cycle;Max_cycle;Signal;HPM_P1;HPM_P2
2022/06/02 00:02:35;;;;;;;0.68;0.30;;;20.30;60.40;;;;;;4481643;32;20267;-60
2022/06/02 00:05:25;;;;;;;0.95;0.30;;;20.20;60.40;;;;;;4482600;32;20137;-60
2022/06/02 00:07:59;;;;;;;0.60;0.25;;;20.20;60.40;;;;;;4467692;32;20314;-60
2022/06/02 00:10:40;;;;;;;0.75;0.30;;;20.20;60.40;;;;;;4480693;32;20171;-60
2022/06/02 00:13:26;;;;;;;0.17;0.17;;;20.20;60.40;;;;;;4479991;32;20219;-60
2022/06/02 00:16:09;;;;;;;0.47;0.30;;;20.20;60.40;;;;;;4468455;32;20164;-60
2022/06/02 00:18:51;;;;;;;0.77;0.38;;;20.20;60.40;;;;;;4469065;32;20133;-60
2022/06/02 00:21:47;;;;;;;0.52;0.30;;;20.20;60.40;;;;;;4471584;32;20183;-60
2022/06/02 00:24:37;;;;;;;1.88;0.30;;;20.20;60.40;;;;;;4469204;32;20137;-60
2022/06/02 00:27:12;;;;;;;1.08;0.30;;;20.20;60.50;;;;;;4480936;32;20151;-60
2022/06/02 00:29:54;;;;;;;1.00;0.40;;;20.20;60.50;;;;;;4467627;32;20210;-60
2022/06/02 00:32:44;;;;;;;0.82;0.32;;;20.10;60.40;;;;;;4470354;32;20637;-60
2022/06/02 00:35:29;;;;;;;0.75;0.35;;;20.20;60.50;;;;;;4481910;32;20140;-60
2022/06/02 00:38:18;;;;;;;0.82;0.40;;;20.10;60.50;;;;;;4481476;32;20222;-60
2022/06/02 00:40:45;;;;;;;1.00;0.50;;;20.20;60.50;;;;;;4481025;32;20140;-60
2022/06/02 00:43:51;;;;;;;0.95;0.50;;;20.10;60.60;;;;;;4482137;32;20279;-60
2022/06/02 00:46:31;;;;;;;0.82;0.32;;;20.10;60.50;;;;;;4481203;32;20124;-60
2022/06/02 00:49:29;;;;;;;0.60;0.30;;;20.10;60.60;;;;;;4469867;32;20303;-60
2022/06/02 00:52:27;;;;;;;1.45;0.47;;;20.10;60.50;;;;;;4482232;32;20145;-60
2022/06/02 00:58:23;;;;;;;0.98;0.40;;;20.10;60.60;;;;;;4480946;32;20132;-60
2022/06/02 01:01:11;;;;;;;1.50;0.47;;;20.10;60.60;;;;;;4481724;32;20140;-60
2022/06/02 01:03:47;;;;;;;0.50;0.28;;;20.10;60.60;;;;;;4480544;32;20194;-60
2022/06/02 01:06:19;;;;;;;1.35;0.40;;;20.10;60.60;;;;;;4480654;32;20144;-60
2022/06/02 01:09:03;;;;;;;0.93;0.22;;;20.00;60.50;;;;;;4481554;32;20151;-60
2022/06/02 01:11:36;;;;;;;0.82;0.38;;;20.00;60.50;;;;;;4466566;32;20143;-60
2022/06/02 01:14:05;;;;;;;0.55;0.25;;;20.00;60.50;;;;;;4481362;32;20125;-60
2022/06/02 01:16:54;;;;;;;0.57;0.30;;;20.00;60.50;;;;;;4480709;32;20128;-60
2022/06/02 01:19:23;;;;;;;0.57;0.28;;;20.00;60.50;;;;;;4480536;32;20137;-60
2022/06/02 01:22:01;;;;;;;1.33;0.40;;;20.00;60.50;;;;;;4462861;32;20129;-60
2022/06/02 01:24:48;;;;;;;0.60;0.20;;;20.00;60.50;;;;;;4475467;32;20143;-60
2022/06/02 01:27:46;;;;;;;0.63;0.30;;;20.00;60.50;;;;;;4433990;32;20505;-60
2022/06/02 01:30:53;;;;;;;0.45;0.25;;;20.00;60.50;;;;;;4481263;32;20190;-60
2022/06/02 01:33:54;;;;;;;0.70;0.30;;;20.00;60.50;;;;;;4454760;32;20137;-60
2022/06/02 01:36:54;;;;;;;0.98;0.35;;;20.00;60.50;;;;;;4480300;32;20125;-60
2022/06/02 01:39:29;;;;;;;0.77;0.20;;;20.00;60.50;;;;;;4476125;32;20151;-60
2022/06/02 01:42:08;;;;;;;0.73;0.30;;;19.90;60.50;;;;;;4480383;32;20129;-60
2022/06/02 01:44:43;;;;;;;0.80;0.20;;;19.90;60.50;;;;;;4480602;32;20149;-60
2022/06/02 01:47:18;;;;;;;0.43;0.22;;;19.90;60.50;;;;;;4481029;32;20133;-60
2022/06/02 01:50:01;;;;;;;0.80;0.20;;;19.90;60.50;;;;;;4479700;32;20155;-60
2022/06/02 01:52:45;;;;;;;0.45;0.28;;;19.90;60.50;;;;;;4467127;32;20282;-60
2022/06/02 01:55:43;;;;;;;0.30;0.20;;;19.90;60.50;;;;;;4480529;32;20250;-60
2022/06/02 01:58:17;;;;;;;0.93;0.30;;;19.90;60.50;;;;;;4479867;32;20139;-60
2022/06/02 02:00:52;;;;;;;0.75;0.30;;;19.90;60.60;;;;;;4467038;32;20137;-60
2022/06/02 02:03:51;;;;;;;1.08;0.30;;;19.90;60.60;;;;;;4480386;32;20129;-60
2022/06/02 02:06:36;;;;;;;0.85;0.20;;;19.90;60.50;;;;;;4450114;32;20743;-60
2022/06/02 02:09:11;;;;;;;0.30;0.22;;;19.90;60.50;;;;;;4481196;32;20133;-60
2022/06/02 02:11:54;;;;;;;0.30;0.22;;;19.80;60.50;;;;;;4480027;32;20263;-60
2022/06/02 02:14:22;;;;;;;0.47;0.20;;;19.80;60.40;;;;;;4479287;32;20125;-60
2022/06/02 02:16:59;;;;;;;0.40;0.20;;;19.80;60.50;;;;;;4466517;32;20113;-60
2022/06/02 02:19:38;;;;;;;0.68;0.28;;;19.80;60.50;;;;;;4479819;32;20145;-60
2022/06/02 02:22:18;;;;;;;0.35;0.20;;;19.80;60.50;;;;;;4474909;32;20141;-60
2022/06/02 02:25:02;;;;;;;0.80;0.25;;;19.80;60.50;;;;;;4476804;32;20143;-60
2022/06/02 02:28:03;;;;;;;1.25;0.25;;;19.80;60.40;;;;;;4480224;32;20121;-60
2022/06/02 02:30:43;;;;;;;0.73;0.30;;;19.80;60.40;;;;;;4481088;32;20276;-60
2022/06/02 02:33:30;;;;;;;0.47;0.30;;;19.80;60.50;;;;;;4480153;32;20493;-60
2022/06/02 02:36:06;;;;;;;0.38;0.22;;;19.80;60.40;;;;;;4480136;32;20121;-60
2022/06/02 02:38:48;;;;;;;0.38;0.10;;;19.80;60.40;;;;;;4480598;32;20193;-60
2022/06/02 02:41:54;;;;;;;0.68;0.20;;;19.80;60.50;;;;;;4478606;32;20145;-60
2022/06/02 02:44:36;;;;;;;0.38;0.30;;;19.80;60.40;;;;;;4480265;32;20624;-60
2022/06/02 02:47:02;;;;;;;0.35;0.20;;;19.80;60.40;;;;;;4483300;32;20129;-60
2022/06/02 02:49:41;;;;;;;0.52;0.28;;;19.80;60.50;;;;;;4482608;32;20152;-60
2022/06/02 02:52:34;;;;;;;0.60;0.22;;;19.80;60.40;;;;;;4483653;32;20152;-60
2022/06/02 02:55:19;;;;;;;0.28;0.25;;;19.80;60.50;;;;;;4483213;32;20136;-60
2022/06/02 02:58:06;;;;;;;0.60;0.30;;;19.70;61.30;;;;;;4482870;32;20132;-60
2022/06/02 03:00:39;;;;;;;0.63;0.20;;;19.70;60.50;;;;;;4483802;32;20147;-60
2022/06/02 03:03:26;;;;;;;1.10;0.40;;;19.70;60.50;;;;;;4482849;32;20133;-60
2022/06/02 03:06:21;;;;;;;0.75;0.20;;;19.70;60.50;;;;;;4481515;32;20271;-60
2022/06/02 03:09:12;;;;;;;0.32;0.22;;;19.70;60.50;;;;;;4483311;32;20145;-60
2022/06/02 03:11:48;;;;;;;0.80;0.25;;;19.70;60.50;;;;;;4481538;32;20121;-60
2022/06/02 03:14:17;;;;;;;0.47;0.30;;;19.70;60.60;;;;;;4482873;32;20485;-60
2022/06/02 03:16:45;;;;;;;0.80;0.20;;;19.70;60.60;;;;;;4483007;32;20137;-60
2022/06/02 03:19:22;;;;;;;0.40;0.20;;;19.70;60.60;;;;;;4482356;32;20151;-60
2022/06/02 03:22:15;;;;;;;1.42;0.35;;;19.70;60.60;;;;;;4478909;32;20151;-60
2022/06/02 03:25:10;;;;;;;0.17;0.13;;;19.70;60.50;;;;;;4478867;32;20156;-60
2022/06/02 03:27:54;;;;;;;0.60;0.30;;;19.70;60.50;;;;;;4482475;32;20255;-60
2022/06/02 03:30:34;;;;;;;0.30;0.20;;;19.70;60.60;;;;;;4483448;32;20249;-60
2022/06/02 03:33:43;;;;;;;0.20;0.10;;;19.70;60.60;;;;;;4482124;32;20570;-60
2022/06/02 03:36:37;;;;;;;0.50;0.20;;;19.70;60.50;;;;;;4387918;32;20143;-60
2022/06/02 03:39:21;;;;;;;0.73;0.20;;;19.60;60.50;;;;;;4459752;32;20128;-60
2022/06/02 03:42:20;;;;;;;0.40;0.20;;;19.60;60.50;;;;;;4482075;32;20164;-60
2022/06/02 03:44:54;;;;;;;0.30;0.20;;;19.60;60.60;;;;;;4431385;32;20176;-60
2022/06/02 03:47:39;;;;;;;0.40;0.20;;;19.60;60.60;;;;;;4482894;32;20120;-60
2022/06/02 03:50:24;;;;;;;0.22;0.20;;;19.60;60.60;;;;;;4481791;32;20191;-60
2022/06/02 03:53:17;;;;;;;0.22;0.10;;;19.60;60.60;;;;;;4482409;32;20129;-60
2022/06/02 03:56:01;;;;;;;0.37;0.20;;;19.60;60.60;;;;;;4471007;32;20751;-60
2022/06/02 03:58:47;;;;;;;0.50;0.30;;;19.60;60.60;;;;;;4481055;32;20128;-60
2022/06/02 04:01:20;;;;;;;0.28;0.15;;;19.60;60.70;;;;;;4482588;32;20125;-60
2022/06/02 04:04:19;;;;;;;0.20;0.10;;;19.60;60.70;;;;;;4482128;32;20141;-60
2022/06/02 04:06:57;;;;;;;0.55;0.20;;;19.60;60.70;;;;;;4481430;32;20214;-60
2022/06/02 04:09:40;;;;;;;0.68;0.30;;;19.60;60.70;;;;;;4482362;32;20141;-60
2022/06/02 04:15:13;;;;;;;0.22;0.20;;;19.50;60.70;;;;;;4474234;32;20601;-60
2022/06/02 04:18:03;;;;;;;0.20;0.10;;;19.60;60.70;;;;;;4482534;32;20128;-60
2022/06/02 04:20:38;;;;;;;0.73;0.28;;;19.60;60.70;;;;;;4482043;32;20272;-60
2022/06/02 04:23:41;;;;;;;0.30;0.20;;;19.50;60.70;;;;;;4469735;32;20212;-60
2022/06/02 04:26:13;;;;;;;0.60;0.28;;;19.50;60.70;;;;;;4482454;32;20163;-60
2022/06/02 04:28:53;;;;;;;0.40;0.30;;;19.50;60.70;;;;;;4470144;32;20171;-60
2022/06/02 04:31:57;;;;;;;0.22;0.10;;;19.50;60.70;;;;;;4480745;32;20255;-60
2022/06/02 04:34:29;;;;;;;0.25;0.20;;;19.50;60.70;;;;;;4482016;32;20147;-60
2022/06/02 04:37:00;;;;;;;0.93;0.20;;;19.50;60.80;;;;;;4480945;32;20198;-60
2022/06/02 04:39:48;;;;;;;0.30;0.28;;;19.50;60.70;;;;;;4482020;32;20266;-60
2022/06/02 04:42:23;;;;;;;0.20;0.13;;;19.50;60.70;;;;;;4481449;32;20172;-60
2022/06/02 04:45:30;;;;;;;0.40;0.20;;;19.50;60.70;;;;;;4481089;32;20478;-60
2022/06/02 04:48:45;;;;;;;0.65;0.20;;;19.50;60.70;;;;;;4387602;32;20609;-60
2022/06/02 04:51:28;;;;;;;0.50;0.30;;;19.50;60.70;;;;;;4473853;32;20210;-60
2022/06/02 04:54:18;;;;;;;0.52;0.10;;;19.50;60.70;;;;;;4480578;32;20268;-60
2022/06/02 04:57:19;;;;;;;0.60;0.20;;;19.50;60.80;;;;;;4477428;32;20170;-60
2022/06/02 05:00:22;;;;;;;0.30;0.20;;;19.50;60.80;;;;;;4453074;32;20137;-60
2022/06/02 05:03:03;;;;;;;0.30;0.20;;;19.50;60.80;;;;;;4465835;32;20222;-60
2022/06/02 05:05:34;;;;;;;0.50;0.30;;;19.50;60.80;;;;;;4469370;32;20165;-61
2022/06/02 05:08:24;;;;;;;0.40;0.30;;;19.50;60.80;;;;;;4463866;32;20191;-61
2022/06/02 05:11:00;;;;;;;0.55;0.22;;;19.50;60.70;;;;;;4467318;32;20251;-60
2022/06/02 05:13:50;;;;;;;0.38;0.20;;;19.50;60.80;;;;;;4467562;32;20258;-60
2022/06/02 05:16:48;;;;;;;0.45;0.20;;;19.50;60.80;;;;;;4469041;32;20582;-60
2022/06/02 05:19:34;;;;;;;0.30;0.10;;;19.50;60.70;;;;;;4459632;32;20125;-60
2022/06/02 05:22:12;;;;;;;0.20;0.17;;;19.50;60.80;;;;;;4466944;32;20125;-60
2022/06/02 05:24:59;;;;;;;0.60;0.20;;;19.50;60.80;;;;;;4465021;32;20183;-60
2022/06/02 05:27:51;;;;;;;0.40;0.20;;;19.50;60.70;;;;;;4466834;32;20143;-60
2022/06/02 05:30:29;;;;;;;0.20;0.10;;;19.50;60.80;;;;;;4471394;32;20136;-60
2022/06/02 05:32:58;;;;;;;0.60;0.40;;;19.50;60.70;;;;;;4469038;32;20668;-61
2022/06/02 05:35:35;;;;;;;0.30;0.30;;;19.50;60.70;;;;;;4463508;32;20656;-60
2022/06/02 05:38:04;;;;;;;0.25;0.20;;;19.50;60.60;;;;;;4452721;32;20207;-60
2022/06/02 05:40:38;;;;;;;0.85;0.20;;;19.50;60.70;;;;;;4467513;32;20195;-60
2022/06/02 05:43:40;;;;;;;0.22;0.10;;;19.50;60.60;;;;;;4466655;32;20215;-60
2022/06/02 05:46:12;;;;;;;0.40;0.30;;;19.60;60.60;;;;;;4475650;32;20143;-60
2022/06/02 05:48:56;;;;;;;0.50;0.20;;;19.50;60.60;;;;;;4477754;32;20141;-60
2022/06/02 05:51:40;;;;;;;0.20;0.17;;;19.60;60.70;;;;;;4480930;32;20267;-60
2022/06/02 05:54:09;;;;;;;0.10;0.10;;;19.60;60.70;;;;;;4465866;32;20125;-60
2022/06/02 05:56:53;;;;;;;0.20;0.10;;;19.50;60.60;;;;;;4480900;32;20190;-60
2022/06/02 05:59:54;;;;;;;0.10;0.10;;;19.60;60.60;;;;;;4480618;32;20562;-60
2022/06/02 06:02:40;;;;;;;0.77;0.20;;;19.60;60.60;;;;;;4477975;32;20636;-60
2022/06/02 06:05:27;;;;;;;0.13;0.03;;;19.60;60.50;;;;;;4480811;32;20129;-60
2022/06/02 06:08:36;;;;;;;0.30;0.20;;;19.60;60.50;;;;;;4480442;32;20186;-60
2022/06/02 06:11:27;;;;;;;0.28;0.20;;;19.60;60.50;;;;;;4456424;32;20139;-60
2022/06/02 06:14:44;;;;;;;0.32;0.20;;;19.60;60.50;;;;;;4466466;32;20258;-60
2022/06/02 06:17:12;;;;;;;0.25;0.15;;;19.60;60.50;;;;;;4466524;32;20243;-60
2022/06/02 06:19:48;;;;;;;0.20;0.10;;;19.60;60.50;;;;;;4479671;32;20213;-60
2022/06/02 06:22:36;;;;;;;0.70;0.20;;;19.60;60.50;;;;;;4476612;32;20137;-60
2022/06/02 06:25:40;;;;;;;0.80;0.30;;;19.60;60.50;;;;;;4482169;32;20153;-60
2022/06/02 06:28:17;;;;;;;0.35;0.20;;;19.60;60.50;;;;;;4468616;32;20143;-60
2022/06/02 06:30:56;;;;;;;0.30;0.10;;;19.60;60.50;;;;;;4484027;32;20148;-60
2022/06/02 06:33:42;;;;;;;0.50;0.20;;;19.60;60.60;;;;;;4483132;32;20160;-60
2022/06/02 06:36:13;;;;;;;1.20;0.30;;;19.60;60.60;;;;;;4482916;32;20263;-60
2022/06/02 06:39:29;;;;;;;0.73;0.30;;;19.60;60.50;;;;;;4481471;32;20131;-61
2022/06/02 06:42:33;;;;;;;2.20;0.38;;;19.60;60.40;;;;;;4468922;32;20132;-61
2022/06/02 06:45:16;;;;;;;0.77;0.50;;;19.70;60.40;;;;;;4472896;32;20141;-62
2022/06/02 06:47:56;;;;;;;3.08;0.57;;;19.70;60.40;;;;;;4465194;32;20139;-62
2022/06/02 06:50:52;;;;;;;0.30;0.30;;;19.70;60.40;;;;;;4468957;32;20149;-62
2022/06/02 06:53:32;;;;;;;0.73;0.38;;;19.70;60.40;;;;;;4467544;32;20149;-62
2022/06/02 06:56:17;;;;;;;1.48;0.40;;;19.80;60.40;;;;;;4468128;32;20192;-62
2022/06/02 06:58:56;;;;;;;1.85;0.47;;;19.80;60.40;;;;;;4467777;32;20191;-62
2022/06/02 07:01:41;;;;;;;1.23;0.35;;;19.80;60.30;;;;;;4468738;32;20137;-61
2022/06/02 07:04:30;;;;;;;1.55;0.70;;;19.80;60.40;;;;;;4469118;32;20310;-61
2022/06/02 07:07:09;;;;;;;1.35;0.50;;;19.80;60.30;;;;;;4467306;32;20118;-62
2022/06/02 07:09:49;;;;;;;1.30;0.75;;;19.80;60.30;;;;;;4467801;32;20124;-62
2022/06/02 07:15:41;;;;;;;2.15;0.60;;;19.80;60.30;;;;;;4466109;32;20145;-61
2022/06/02 07:18:21;;;;;;;2.10;0.60;;;19.80;60.20;;;;;;4468599;32;20140;-62
2022/06/02 07:20:50;;;;;;;3.22;0.60;;;19.80;60.10;;;;;;4455140;32;20670;-62
2022/06/02 07:23:35;;;;;;;2.35;0.80;;;19.80;60.20;;;;;;4466246;32;20658;-61
2022/06/02 07:26:22;;;;;;;2.05;0.63;;;19.80;60.10;;;;;;4467506;32;20126;-61
2022/06/02 07:29:16;;;;;;;1.17;0.60;;;19.80;60.10;;;;;;4464996;32;20140;-62
2022/06/02 07:31:51;;;;;;;1.73;0.60;;;19.80;60.00;;;;;;4454280;32;20601;-62
2022/06/02 07:34:39;;;;;;;1.00;0.70;;;19.80;60.10;;;;;;4469691;31;20133;-62
2022/06/02 07:37:16;;;;;;;3.38;0.60;;;19.80;60.00;;;;;;4471140;32;20128;-61
2022/06/02 07:39:45;;;;;;;1.13;0.43;;;19.80;60.10;;;;;;4482343;32;20247;-61
2022/06/02 07:42:29;;;;;;;1.80;0.70;;;19.80;60.00;;;;;;4469795;32;20139;-61
2022/06/02 07:44:55;;;;;;;;;;;19.80;59.90;;;;;;4477941;32;20135;-61
2022/06/02 07:47:32;;;;;;;2.38;0.80;;;19.80;59.90;;;;;;4483007;32;20021;-61
2022/06/02 07:50:01;;;;;;;1.17;0.50;;;19.80;60.00;;;;;;4481405;32;20661;-61
2022/06/02 07:52:33;;;;;;;2.83;0.70;;;19.70;59.90;;;;;;4468435;32;20120;-61
2022/06/02 07:55:31;;;;;;;1.67;0.90;;;19.80;59.90;;;;;;4481971;32;20195;-61
2022/06/02 07:58:24;;;;;;;3.78;0.60;;;19.80;59.80;;;;;;4478766;32;20141;-61
2022/06/02 08:01:01;;;;;;;2.87;0.90;;;19.70;59.80;;;;;;4471080;32;20168;-61
2022/06/02 08:03:45;;;;;;;2.70;0.90;;;19.70;59.80;;;;;;4481982;32;20140;-61
2022/06/02 08:06:27;;;;;;;2.20;0.60;;;19.80;59.90;;;;;;4470000;32;20199;-61
2022/06/02 08:09:16;;;;;;;3.53;0.93;;;19.80;59.80;;;;;;4472207;32;20135;-61
2022/06/02 08:11:51;;;;;;;2.22;1.10;;;19.70;59.80;;;;;;4464824;32;20736;-61
2022/06/02 08:14:55;;;;;;;1.55;0.75;;;19.80;59.80;;;;;;4468198;32;20217;-61
2022/06/02 08:17:23;;;;;;;;;;;19.80;59.70;;;;;;4406133;32;20425;-61
2022/06/02 08:20:27;;;;;;;4.22;1.08;;;19.80;59.80;;;;;;4456300;32;20049;-61
2022/06/02 08:23:21;;;;;;;2.08;0.75;;;19.70;59.70;;;;;;4466522;32;20587;-61
2022/06/02 08:26:13;;;;;;;3.85;1.00;;;19.70;59.70;;;;;;4468606;32;20139;-61
2022/06/02 08:29:06;;;;;;;2.85;0.90;;;19.70;59.50;;;;;;4470847;32;20141;-61
2022/06/02 08:32:02;;;;;;;1.58;0.75;;;19.70;59.40;;;;;;4468145;32;20140;-61
2022/06/02 08:34:43;;;;;;;2.50;0.80;;;19.80;59.50;;;;;;4469403;32;20157;-61
2022/06/02 08:37:33;;;;;;;2.78;0.80;;;19.80;59.60;;;;;;4466467;32;20187;-61
2022/06/02 08:41:01;;;;;;;1.58;0.80;;;19.80;59.60;;;;;;4470221;32;20121;-61
2022/06/02 08:43:57;;;;;;;2.15;0.90;;;19.70;59.50;;;;;;4432867;32;20644;-61
2022/06/02 08:46:59;;;;;;;3.15;1.10;;;19.80;59.60;;;;;;4442256;32;20144;-61
2022/06/02 08:49:53;;;;;;;4.05;0.98;;;19.80;59.50;;;;;;4472924;32;20130;-61
2022/06/02 08:52:56;;;;;;;2.17;0.80;;;19.80;59.40;;;;;;4466773;32;20272;-61
2022/06/02 08:55:44;;;;;;;3.70;1.08;;;19.80;59.40;;;;;;4467038;32;20141;-61
2022/06/02 08:58:32;;;;;;;1.42;0.70;;;19.80;59.40;;;;;;4473522;32;20147;-61
2022/06/02 09:01:16;;;;;;;5.95;1.55;;;19.80;59.30;;;;;;4474643;32;20132;-62
2022/06/02 09:04:00;;;;;;;;;;;19.80;59.30;;;;;;4481682;32;20189;-61
2022/06/02 09:06:50;;;;;;;4.10;0.80;;;19.80;59.20;;;;;;4480226;32;20049;-62
2022/06/02 09:10:04;;;;;;;3.25;0.95;;;19.80;59.30;;;;;;4481514;32;20262;-62
2022/06/02 09:13:01;;;;;;;3.42;0.90;;;19.80;59.00;;;;;;4431539;32;20130;-61
2022/06/02 09:16:05;;;;;;;2.25;1.00;;;19.80;58.90;;;;;;4471551;32;20151;-62
2022/06/02 09:18:51;;;;;;;1.45;0.88;;;19.80;59.00;;;;;;4480869;32;20235;-62
2022/06/02 09:21:19;;;;;;;;;;;19.80;58.90;;;;;;4465463;32;20516;-61
2022/06/02 09:23:47;;;;;;;4.88;0.77;;;19.80;58.90;;;;;;4464004;32;20029;-62
2022/06/02 09:26:34;;;;;;;6.38;1.25;;;19.80;59.00;;;;;;4466316;32;20514;-62
2022/06/02 09:29:23;;;;;;;2.58;1.00;;;19.80;58.90;;;;;;4465201;32;20121;-62
2022/06/02 09:32:18;;;;;;;1.55;1.00;;;19.80;58.90;;;;;;4466428;32;20132;-62
2022/06/02 09:35:09;;;;;;;;;;;19.80;58.80;;;;;;4467892;32;20295;-62
2022/06/02 09:37:44;;;;;;;3.08;0.80;;;19.80;58.90;;;;;;4466060;32;20044;-62
2022/06/02 09:40:31;;;;;;;1.65;0.73;;;19.80;58.80;;;;;;4467743;32;20266;-62
2022/06/02 09:43:38;;;;;;;1.70;0.85;;;19.80;58.80;;;;;;4466070;32;20153;-64
2022/06/02 09:46:27;;;;;;;4.72;1.00;;;19.80;58.70;;;;;;4452796;32;20242;-61
2022/06/02 09:49:27;;;;;;;3.00;1.02;;;19.80;58.70;;;;;;4466086;32;20129;-61
2022/06/02 09:52:20;;;;;;;1.65;0.85;;;19.80;58.60;;;;;;4468099;32;20474;-61
2022/06/02 09:55:05;;;;;;;6.10;1.13;;;19.80;58.50;;;;;;4465370;32;20141;-61
2022/06/02 09:57:55;;;;;;;2.47;1.20;;;19.80;58.30;;;;;;4466079;32;20283;-61
2022/06/02 10:00:36;;;;;;;6.07;1.10;;;19.90;58.60;;;;;;4465557;32;20144;-61
2022/06/02 10:03:24;;;;;;;3.00;0.98;;;19.90;58.60;;;;;;4463795;32;20169;-61
2022/06/02 10:06:08;;;;;;;1.98;0.85;;;19.90;58.80;;;;;;4462618;32;20153;-62
2022/06/02 10:08:55;;;;;;;2.40;0.90;;;19.90;58.50;;;;;;4465975;32;20133;-61
2022/06/02 10:12:54;;;;;;;3.45;1.00;;;19.90;58.40;;;;;;4464780;32;20144;-61
2022/06/02 10:15:14;;;;;;;3.40;0.90;;;20.00;58.60;;;;;;4464806;32;20145;-61
2022/06/02 10:18:09;;;;;;;2.80;0.88;;;20.00;58.60;;;;;;4466004;32;20133;-61
2022/06/02 10:21:06;;;;;;;2.83;0.90;;;20.00;58.70;;;;;;4408429;32;20257;-61
2022/06/02 10:23:55;;;;;;;1.63;0.70;;;20.00;58.70;;;;;;4464823;32;20141;-62
2022/06/02 10:27:13;;;;;;;2.53;0.90;;;20.10;58.40;;;;;;4466136;32;20729;-62
2022/06/02 10:29:44;;;;;;;2.90;1.20;;;20.00;58.10;;;;;;4440783;32;20121;-61
2022/06/02 10:32:44;;;;;;;3.35;0.75;;;20.10;58.30;;;;;;4465663;32;20128;-61
2022/06/02 10:35:25;;;;;;;2.67;0.95;;;20.10;58.60;;;;;;4467888;32;20132;-63
2022/06/02 10:38:03;;;;;;;8.02;1.00;;;20.10;58.80;;;;;;4465658;32;20125;-61
2022/06/02 10:41:02;;;;;;;6.35;0.85;;;20.10;58.80;;;;;;4465831;32;20275;-62
2022/06/02 10:44:05;;;;;;;2.95;0.80;;;20.10;58.50;;;;;;4465798;32;20132;-62
2022/06/02 10:47:16;;;;;;;1.60;0.88;;;20.10;58.70;;;;;;4464488;32;20156;-62
2022/06/02 10:50:23;;;;;;;2.38;1.08;;;20.10;58.20;;;;;;4465067;32;20137;-62
2022/06/02 10:53:23;;;;;;;1.30;0.77;;;20.10;57.90;;;;;;4465628;32;20145;-62
2022/06/02 10:55:49;;;;;;;2.75;0.80;;;20.20;57.90;;;;;;4467181;32;20129;-62
2022/06/02 10:58:32;;;;;;;2.90;1.08;;;20.20;58.00;;;;;;4464266;32;20195;-62
2022/06/02 11:01:07;;;;;;;2.50;1.00;;;20.20;58.10;;;;;;4469538;32;20133;-61
2022/06/02 11:03:42;;;;;;;1.83;0.85;;;20.20;57.80;;;;;;4479646;32;20141;-63
2022/06/02 11:06:43;;;;;;;4.70;0.93;;;20.30;57.70;;;;;;4478835;32;20121;-62
2022/06/02 11:09:15;;;;;;;4.32;0.88;;;20.30;57.30;;;;;;4482868;31;20143;-62
2022/06/02 11:11:47;;;;;;;2.78;0.82;;;20.30;57.40;;;;;;4482224;31;20129;-60
2022/06/02 11:14:44;;;;;;;2.40;0.98;;;20.40;57.20;;;;;;4482652;32;20548;-61
2022/06/02 11:17:25;;;;;;;3.05;1.02;;;20.40;57.00;;;;;;4483419;32;20222;-61
2022/06/02 11:20:11;;;;;;;1.77;0.85;;;20.40;57.00;;;;;;4472670;32;20167;-61
2022/06/02 11:22:53;;;;;;;3.40;0.80;;;20.50;56.90;;;;;;4465893;32;20180;-61
2022/06/02 11:25:53;;;;;;;2.78;0.90;;;20.50;56.80;;;;;;4472444;32;20121;-61
2022/06/02 11:28:49;;;;;;;1.25;0.70;;;20.50;56.70;;;;;;4482003;32;20190;-61
2022/06/02 11:31:42;;;;;;;5.90;1.23;;;20.50;56.60;;;;;;4482029;31;20168;-62
2022/06/02 11:34:18;;;;;;;3.58;0.98;;;20.50;56.50;;;;;;4467452;32;20124;-61
2022/06/02 11:36:52;;;;;;;4.00;1.08;;;20.50;56.50;;;;;;4481105;31;20152;-61
2022/06/02 11:39:36;;;;;;;1.58;0.90;;;20.50;56.60;;;;;;4482434;31;20558;-61
2022/06/02 11:42:08;;;;;;;3.30;1.00;;;20.50;56.40;;;;;;4481258;32;20155;-61
2022/06/02 11:45:11;;;;;;;0.98;0.80;;;20.50;56.40;;;;;;4482134;32;20121;-61
2022/06/02 11:47:41;;;;;;;2.43;0.90;;;20.50;56.20;;;;;;4482919;32;20129;-61
2022/06/02 11:50:34;;;;;;;3.55;0.82;;;20.50;56.20;;;;;;4467403;32;20262;-61
2022/06/02 11:53:21;;;;;;;1.35;0.80;;;20.60;55.70;;;;;;4482258;32;20143;-61
2022/06/02 11:56:13;;;;;;;6.70;0.70;;;20.60;55.70;;;;;;4482916;32;20129;-61
2022/06/02 11:58:54;;;;;;;2.28;0.95;;;20.60;55.80;;;;;;4481758;32;20137;-61
2022/06/02 12:01:26;;;;;;;2.63;0.95;;;20.60;55.80;;;;;;4481956;32;20144;-61
2022/06/02 12:04:04;;;;;;;4.50;0.98;;;20.60;55.80;;;;;;4479196;32;20140;-61
2022/06/02 12:06:54;;;;;;;3.17;0.80;;;20.60;55.70;;;;;;4480898;31;20117;-61
2022/06/02 12:09:42;;;;;;;2.15;0.95;;;20.60;55.80;;;;;;4482069;32;20137;-61
2022/06/02 12:12:41;;;;;;;2.40;0.82;;;20.70;55.90;;;;;;4467743;32;20196;-62
2022/06/02 12:15:27;;;;;;;3.20;0.93;;;20.70;55.90;;;;;;4454983;31;20147;-61
2022/06/02 12:18:16;;;;;;;1.73;0.60;;;20.70;55.80;;;;;;4481443;32;20194;-61
2022/06/02 12:21:01;;;;;;;4.00;1.05;;;20.70;55.50;;;;;;4477747;32;20121;-61
2022/06/02 12:23:46;;;;;;;5.60;0.82;;;20.70;55.60;;;;;;4470144;31;20121;-62
2022/06/02 12:26:15;;;;;;;3.63;0.80;;;20.80;55.50;;;;;;4486334;31;20144;-61
2022/06/02 12:28:47;;;;;;;4.18;1.20;;;20.80;55.50;;;;;;4476981;32;20607;-61
2022/06/02 12:31:13;;;;;;;2.08;0.73;;;20.80;55.50;;;;;;4481566;32;20191;-62
2022/06/02 12:34:12;;;;;;;2.55;1.00;;;20.80;55.70;;;;;;4481680;32;20125;-61
2022/06/02 12:36:56;;;;;;;5.60;0.70;;;20.80;55.90;;;;;;4477404;32;20167;-61
2022/06/02 12:39:37;;;;;;;2.35;0.88;;;20.70;56.30;;;;;;4467819;32;20143;-61
2022/06/02 12:42:27;;;;;;;9.50;0.70;;;20.70;55.70;;;;;;4466810;32;20144;-61
2022/06/02 12:45:14;;;;;;;1.85;0.60;;;20.70;55.40;;;;;;4480507;31;20125;-61
2022/06/02 12:48:02;;;;;;;1.80;0.80;;;20.80;55.50;;;;;;4480792;31;20140;-61
2022/06/02 12:50:41;;;;;;;2.60;0.85;;;20.80;55.50;;;;;;4480570;32;20238;-61
2022/06/02 12:53:25;;;;;;;4.63;1.17;;;20.80;55.50;;;;;;4480708;31;20371;-62
2022/06/02 12:55:54;;;;;;;;;;;20.80;55.50;;;;;;4480645;32;20125;-61
2022/06/02 12:58:31;;;;;;;5.05;1.08;;;20.90;55.40;;;;;;4480250;31;20029;-62
2022/06/02 13:01:32;;;;;;;3.72;0.70;;;20.90;55.30;;;;;;4480041;32;20145;-61
2022/06/02 13:04:23;;;;;;;2.25;0.82;;;20.90;55.20;;;;;;4468436;32;20585;-61
2022/06/02 13:07:07;;;;;;;2.75;0.77;;;20.90;55.10;;;;;;4480219;32;20132;-62
2022/06/02 13:09:59;;;;;;;2.92;0.80;;;20.90;55.00;;;;;;4481192;32;20270;-61
2022/06/02 13:12:37;;;;;;;2.00;0.90;;;20.90;54.70;;;;;;4478622;32;20214;-61
2022/06/02 13:15:43;;;;;;;1.83;0.90;;;21.00;54.80;;;;;;4480411;32;20140;-61
2022/06/02 13:18:12;;;;;;;2.20;0.85;;;21.00;54.40;;;;;;4481012;32;20160;-61
2022/06/02 13:21:16;;;;;;;0.95;0.75;;;21.10;54.50;;;;;;4480922;32;20156;-61
2022/06/02 13:23:43;;;;;;;1.65;0.80;;;21.10;54.30;;;;;;4456533;32;20508;-61
2022/06/02 13:26:12;;;;;;;1.67;0.70;;;21.10;54.40;;;;;;4481611;32;20138;-61
2022/06/02 13:28:47;;;;;;;5.93;0.90;;;21.10;54.30;;;;;;4480466;32;20140;-61
2022/06/02 13:31:19;;;;;;;3.05;1.00;;;21.10;54.00;;;;;;4480355;32;20230;-61
2022/06/02 13:33:57;;;;;;;4.20;1.00;;;21.10;54.10;;;;;;4470201;32;20137;-61
2022/06/02 13:37:03;;;;;;;1.70;0.70;;;21.10;53.90;;;;;;4480040;32;20190;-61
2022/06/02 13:40:00;;;;;;;1.88;0.77;;;21.10;53.70;;;;;;4480822;32;20132;-62
2022/06/02 13:42:56;;;;;;;3.75;1.27;;;21.20;53.50;;;;;;4477231;31;20145;-61
2022/06/02 13:45:51;;;;;;;2.28;0.93;;;21.10;53.30;;;;;;4479530;31;20497;-62
2022/06/02 13:48:55;;;;;;;4.15;0.90;;;21.20;53.50;;;;;;4480764;31;20144;-61
2022/06/02 13:51:20;;;;;;;3.25;0.85;;;21.20;53.40;;;;;;4480147;31;20172;-62
2022/06/02 13:57:46;;;;;;;2.03;1.00;;;21.20;53.80;;;;;;4479874;31;20192;-61
2022/06/02 14:00:33;;;;;;;3.67;1.00;;;21.20;53.60;;;;;;4481049;31;20163;-61
2022/06/02 14:03:21;;;;;;;1.90;0.77;;;21.20;53.60;;;;;;4478563;31;20581;-61
2022/06/02 14:06:05;;;;;;;3.63;0.90;;;21.30;53.50;;;;;;4479484;31;20137;-62
2022/06/02 14:09:06;;;;;;;5.07;0.75;;;21.30;53.50;;;;;;4480379;32;20303;-62
2022/06/02 14:12:11;;;;;;;2.50;0.80;;;21.30;53.60;;;;;;4422598;32;20199;-63
2022/06/02 14:14:55;;;;;;;;;;;21.20;53.30;;;;;;4463988;32;20125;-61
2022/06/02 14:17:40;;;;;;;;;;;21.30;53.20;;;;;;4481363;32;20041;-62
2022/06/02 14:20:18;;;;;;;2.38;0.85;;;21.30;53.40;;;;;;4479526;32;20083;-62
2022/06/02 14:23:02;;;;;;;2.50;0.90;;;21.30;53.50;;;;;;4469876;32;20148;-61
2022/06/02 14:25:41;;;;;;;2.83;0.80;;;21.30;53.30;;;;;;4471622;32;20266;-62
2022/06/02 14:28:22;;;;;;;3.58;0.85;;;21.30;53.10;;;;;;4477316;32;20149;-62
2022/06/02 14:31:16;;;;;;;3.58;0.90;;;21.40;52.90;;;;;;4467753;32;20129;-62
2022/06/02 14:33:46;;;;;;;2.78;0.80;;;21.30;52.70;;;;;;4480110;32;20206;-62
2022/06/02 14:36:52;;;;;;;2.75;0.93;;;21.30;52.70;;;;;;4479383;32;20129;-62
2022/06/02 14:39:35;;;;;;;2.40;0.85;;;21.40;52.80;;;;;;4478985;32;20148;-62